createdAt,value
2018-03-01T00:02:20.789Z,-7.50
2018-03-01T00:04:50.645Z,-7.50
2018-03-01T00:07:21.248Z,-7.50
2018-03-01T00:09:52.609Z,-7.50
2018-03-01T00:12:22.442Z,-7.50
2018-03-01T00:14:53.066Z,-7.70
2018-03-01T00:17:23.688Z,-7.70
2018-03-01T00:19:53.754Z,-7.70
2018-03-01T00:22:34.931Z,-7.70
2018-03-01T00:25:04.081Z,-7.70
2018-03-01T00:27:34.349Z,-7.70
2018-03-01T00:30:03.877Z,-7.80
2018-03-01T00:32:33.719Z,-7.80
2018-03-01T00:35:03.550Z,-7.80
2018-03-01T00:37:34.199Z,-7.90
2018-03-01T00:40:04.125Z,-7.90
2018-03-01T00:42:33.978Z,-8.00
2018-03-01T00:45:03.781Z,-8.00
2018-03-01T00:47:33.615Z,-8.00
2018-03-01T00:50:03.418Z,-8.00
2018-03-01T00:52:33.255Z,-8.00
2018-03-01T00:55:03.323Z,-8.00
2018-03-01T00:57:33.166Z,-8.00
2018-03-01T01:00:03.830Z,-8.10
2018-03-01T01:02:33.407Z,-8.10
2018-03-01T01:05:03.268Z,-8.10
2018-03-01T01:07:33.114Z,-8.10
2018-03-01T01:10:03.142Z,-8.20
2018-03-01T01:12:33.678Z,-8.20
2018-03-01T01:15:03.538Z,-8.20
2018-03-01T01:17:33.779Z,-8.20
2018-03-01T01:20:03.296Z,-8.20
2018-03-01T01:22:33.113Z,-8.20
2018-03-01T01:25:02.949Z,-8.20
2018-03-01T01:27:32.810Z,-8.30
2018-03-01T01:30:02.627Z,-8.30
2018-03-01T01:32:32.466Z,-8.30
2018-03-01T01:35:02.279Z,-8.30
2018-03-01T01:37:32.148Z,-8.30
2018-03-01T01:40:01.931Z,-8.40
2018-03-01T01:42:31.782Z,-8.30
2018-03-01T01:45:01.638Z,-8.40
2018-03-01T01:47:31.511Z,-8.40
2018-03-01T01:50:02.118Z,-8.40
2018-03-01T01:52:31.930Z,-8.50
2018-03-01T01:55:01.781Z,-8.50
2018-03-01T01:57:31.588Z,-8.50
2018-03-01T02:00:01.422Z,-8.50
2018-03-01T02:02:31.011Z,-8.50
2018-03-01T02:05:00.861Z,-8.50
2018-03-01T02:07:30.709Z,-8.50
2018-03-01T02:10:01.286Z,-8.60
2018-03-01T02:12:30.875Z,-8.60
2018-03-01T02:15:00.798Z,-8.60
2018-03-01T02:17:30.350Z,-8.60
2018-03-01T02:20:00.585Z,-8.70
2018-03-01T02:22:31.904Z,-8.70
2018-03-01T02:25:01.683Z,-8.70
2018-03-01T02:27:32.228Z,-8.70
2018-03-01T02:30:02.037Z,-8.70
2018-03-01T02:32:31.581Z,-8.80
2018-03-01T02:35:01.044Z,-8.70
2018-03-01T02:37:30.967Z,-8.80
2018-03-01T02:40:01.728Z,-8.80
2018-03-01T02:42:31.618Z,-8.80
2018-03-01T02:45:01.541Z,-8.80
2018-03-01T02:47:31.370Z,-8.80
2018-03-01T02:50:00.810Z,-8.90
2018-03-01T02:52:31.385Z,-8.90
2018-03-01T02:55:01.172Z,-8.90
2018-03-01T02:57:31.735Z,-8.90
2018-03-01T03:00:01.515Z,-8.90
2018-03-01T03:02:31.057Z,-8.90
2018-03-01T03:05:00.505Z,-9.00
2018-03-01T03:07:31.090Z,-9.00
2018-03-01T03:10:00.584Z,-9.00
2018-03-01T03:12:30.425Z,-9.00
2018-03-01T03:15:00.201Z,-9.00
2018-03-01T03:17:30.010Z,-9.00
2018-03-01T03:19:59.842Z,-9.10
2018-03-01T03:22:29.608Z,-9.10
2018-03-01T03:25:00.201Z,-9.20
2018-03-01T03:27:29.977Z,-9.20
2018-03-01T03:29:59.789Z,-9.20
2018-03-01T03:32:29.600Z,-9.20
2018-03-01T03:34:59.673Z,-9.10
2018-03-01T03:37:29.481Z,-9.20
2018-03-01T03:40:00.111Z,-9.20
2018-03-01T03:42:29.919Z,-9.30
2018-03-01T03:44:59.715Z,-9.30
2018-03-01T03:47:30.013Z,-9.30
2018-03-01T03:49:59.837Z,-9.30
2018-03-01T03:52:29.818Z,-9.20
2018-03-01T03:55:00.388Z,-9.30
2018-03-01T03:57:30.174Z,-9.40
2018-03-01T04:00:00.747Z,-9.30
2018-03-01T04:02:30.551Z,-9.30
2018-03-01T04:05:00.425Z,-9.30
2018-03-01T04:07:31.021Z,-9.40
2018-03-01T04:10:00.907Z,-9.40
2018-03-01T04:12:30.748Z,-9.40
2018-03-01T04:15:00.545Z,-9.40
2018-03-01T04:17:30.384Z,-9.40
2018-03-01T04:20:00.225Z,-9.40
2018-03-01T04:22:30.817Z,-9.40
2018-03-01T04:25:00.463Z,-9.40
2018-03-01T04:27:31.027Z,-9.50
2018-03-01T04:30:00.834Z,-9.50
2018-03-01T04:32:30.641Z,-9.50
2018-03-01T04:35:00.470Z,-9.50
2018-03-01T04:37:30.246Z,-9.50
2018-03-01T04:40:00.839Z,-9.60
2018-03-01T04:42:30.610Z,-9.60
2018-03-01T04:45:00.432Z,-9.60
2018-03-01T04:47:30.211Z,-9.60
2018-03-01T04:50:00.118Z,-9.50
2018-03-01T04:52:30.693Z,-9.50
2018-03-01T04:55:00.495Z,-9.60
2018-03-01T04:57:30.325Z,-9.60
2018-03-01T05:00:00.089Z,-9.60
2018-03-01T05:02:30.677Z,-9.70
2018-03-01T05:05:00.527Z,-9.70
2018-03-01T05:07:30.392Z,-9.70
2018-03-01T05:10:00.156Z,-9.70
2018-03-01T05:12:30.727Z,-9.80
2018-03-01T05:15:00.555Z,-9.80
2018-03-01T05:17:30.331Z,-9.80
2018-03-01T05:19:59.994Z,-9.80
2018-03-01T05:22:29.772Z,-9.80
2018-03-01T05:24:59.599Z,-9.90
2018-03-01T05:27:29.365Z,-9.90
2018-03-01T05:30:00.428Z,-9.90
2018-03-01T05:32:30.395Z,-9.90
2018-03-01T05:35:00.236Z,-9.90
2018-03-01T05:37:30.810Z,-10.10
2018-03-01T05:40:00.644Z,-10.10
2018-03-01T05:42:30.491Z,-10.10
2018-03-01T05:45:01.159Z,-10.00
2018-03-01T05:47:31.132Z,-10.10
2018-03-01T05:50:01.714Z,-10.10
2018-03-01T05:52:31.928Z,-10.10
2018-03-01T05:55:01.801Z,-10.10
2018-03-01T05:57:31.801Z,-10.10
2018-03-01T06:00:02.326Z,-10.20
2018-03-01T06:02:32.205Z,-10.10
2018-03-01T06:05:02.956Z,-10.10
2018-03-01T06:07:33.606Z,-10.10
2018-03-01T06:10:03.381Z,-10.20
2018-03-01T06:12:33.206Z,-10.20
2018-03-01T06:15:02.985Z,-10.20
2018-03-01T06:17:32.806Z,-10.20
2018-03-01T06:20:02.750Z,-10.20
2018-03-01T06:22:32.903Z,-10.20
2018-03-01T06:25:06.138Z,-10.20
2018-03-01T06:27:36.397Z,-10.20
2018-03-01T06:30:06.231Z,-10.10
2018-03-01T06:32:36.049Z,-10.10
2018-03-01T06:35:06.749Z,-10.10
2018-03-01T06:37:36.580Z,-10.10
2018-03-01T06:40:06.380Z,-9.90
2018-03-01T06:42:36.244Z,-9.90
2018-03-01T06:45:06.210Z,-9.80
2018-03-01T06:47:36.035Z,-9.70
2018-03-01T06:50:06.174Z,-9.70
2018-03-01T06:52:37.612Z,-9.60
2018-03-01T06:55:07.425Z,-9.60
2018-03-01T06:57:37.270Z,-9.50
2018-03-01T07:00:07.813Z,-9.50
2018-03-01T07:02:37.641Z,-9.50
2018-03-01T07:05:07.457Z,-9.50
2018-03-01T07:07:37.313Z,-9.60
2018-03-01T07:10:07.101Z,-9.40
2018-03-01T07:12:36.931Z,-9.30
2018-03-01T07:15:06.773Z,-9.20
2018-03-01T07:17:38.363Z,-8.80
2018-03-01T07:20:08.981Z,-8.80
2018-03-01T07:22:38.538Z,-8.80
2018-03-01T07:25:08.347Z,-8.70
2018-03-01T07:27:38.277Z,-8.50
2018-03-01T07:30:08.871Z,-8.40
2018-03-01T07:32:38.710Z,-8.40
2018-03-01T07:35:08.524Z,-8.00
2018-03-01T07:37:37.978Z,-8.00
2018-03-01T07:40:07.792Z,-7.90
2018-03-01T07:42:37.575Z,-7.60
2018-03-01T07:45:08.153Z,-7.40
2018-03-01T07:47:37.960Z,-7.40
2018-03-01T07:50:07.778Z,-7.30
2018-03-01T07:52:37.640Z,-7.40
2018-03-01T07:55:08.179Z,-6.90
2018-03-01T07:57:38.776Z,-6.80
2018-03-01T08:00:09.138Z,-6.80
2018-03-01T08:02:39.735Z,-6.80
2018-03-01T08:05:09.593Z,-6.80
2018-03-01T08:07:39.384Z,-6.60
2018-03-01T08:10:09.187Z,-6.50
2018-03-01T08:12:39.433Z,-6.30
2018-03-01T08:15:09.258Z,-6.20
2018-03-01T08:17:39.056Z,-6.00
2018-03-01T08:20:10.561Z,-5.70
2018-03-01T08:22:40.409Z,-5.70
2018-03-01T08:25:10.195Z,-5.60
2018-03-01T08:27:40.024Z,-5.70
2018-03-01T08:30:10.018Z,-5.60
2018-03-01T08:32:39.905Z,-5.70
2018-03-01T08:35:09.737Z,-5.60
2018-03-01T08:37:39.525Z,-5.20
2018-03-01T08:40:09.451Z,-5.10
2018-03-01T08:42:39.239Z,-5.00
2018-03-01T08:45:09.062Z,-5.00
2018-03-01T08:47:38.866Z,-4.70
2018-03-01T08:50:09.447Z,-4.50
2018-03-01T08:52:39.255Z,-4.50
2018-03-01T08:55:09.066Z,-4.50
2018-03-01T08:57:39.390Z,-4.40
2018-03-01T09:00:08.832Z,-4.50
2018-03-01T09:02:38.665Z,-4.30
2018-03-01T09:05:08.451Z,-4.40
2018-03-01T09:07:38.341Z,-4.10
2018-03-01T09:10:08.119Z,-3.90
2018-03-01T09:12:37.960Z,-3.40
2018-03-01T09:15:07.720Z,-3.60
2018-03-01T09:17:38.305Z,-3.70
2018-03-01T09:20:08.087Z,-3.70
2018-03-01T09:22:37.941Z,-3.40
2018-03-01T09:25:07.779Z,-3.20
2018-03-01T09:27:37.599Z,-3.40
2018-03-01T09:30:08.143Z,-3.10
2018-03-01T09:32:37.949Z,-3.20
2018-03-01T09:35:08.193Z,-2.70
2018-03-01T09:37:37.984Z,-2.70
2018-03-01T09:40:08.577Z,-2.90
2018-03-01T09:42:38.354Z,-3.00
2018-03-01T09:45:08.179Z,-2.50
2018-03-01T09:47:37.997Z,-2.80
2018-03-01T09:50:07.787Z,-2.80
2018-03-01T09:52:37.590Z,-2.80
2018-03-01T09:55:07.370Z,-2.80
2018-03-01T09:57:37.183Z,-2.70
2018-03-01T10:00:07.015Z,-2.10
2018-03-01T10:02:36.819Z,-1.90
2018-03-01T10:05:07.462Z,-2.20
2018-03-01T10:07:37.428Z,-2.20
2018-03-01T10:10:07.245Z,-2.50
2018-03-01T10:12:37.014Z,-2.50
2018-03-01T10:15:06.834Z,-3.20
2018-03-01T10:17:36.654Z,-3.10
2018-03-01T10:20:06.444Z,-2.90
2018-03-01T10:22:36.272Z,-2.60
2018-03-01T10:25:06.057Z,-2.60
2018-03-01T10:27:35.885Z,-3.00
2018-03-01T10:30:05.438Z,-2.80
2018-03-01T10:32:35.269Z,-3.00
2018-03-01T10:35:05.174Z,-2.60
2018-03-01T10:37:34.967Z,-2.30
2018-03-01T10:40:04.797Z,-1.90
2018-03-01T10:42:34.588Z,-2.10
2018-03-01T10:45:04.074Z,-2.00
2018-03-01T10:47:33.853Z,-1.80
2018-03-01T10:50:03.800Z,-1.60
2018-03-01T10:52:34.478Z,-1.60
2018-03-01T10:55:04.264Z,-1.60
2018-03-01T10:57:34.318Z,-1.60
2018-03-01T11:00:03.805Z,-1.40
2018-03-01T11:02:33.538Z,-1.60
2018-03-01T11:05:03.062Z,-1.70
2018-03-01T11:07:34.383Z,-1.30
2018-03-01T11:10:04.013Z,-1.30
2018-03-01T11:12:34.374Z,-1.40
2018-03-01T11:15:03.863Z,-1.40
2018-03-01T11:17:33.640Z,-1.60
2018-03-01T11:20:03.192Z,-1.50
2018-03-01T11:22:32.847Z,-1.30
2018-03-01T11:25:02.429Z,-0.90
2018-03-01T11:27:32.539Z,-0.70
2018-03-01T11:30:02.556Z,-0.10
2018-03-01T11:32:32.490Z,-0.10
2018-03-01T11:35:02.506Z,0.20
2018-03-01T11:37:33.201Z,1.10
2018-03-01T11:40:02.993Z,1.00
2018-03-01T11:42:32.490Z,1.30
2018-03-01T11:45:02.302Z,1.30
2018-03-01T11:47:32.088Z,1.40
2018-03-01T11:50:01.882Z,2.40
2018-03-01T11:52:31.704Z,2.90
2018-03-01T11:55:01.521Z,2.90
2018-03-01T11:57:31.292Z,3.50
2018-03-01T12:00:01.905Z,3.10
2018-03-01T12:02:31.730Z,3.10
2018-03-01T12:05:02.331Z,2.90
2018-03-01T12:07:32.102Z,2.80
2018-03-01T12:10:01.909Z,2.80
2018-03-01T12:12:31.713Z,2.90
2018-03-01T12:15:01.481Z,2.20
2018-03-01T12:17:31.293Z,2.60
2018-03-01T12:20:02.086Z,3.10
2018-03-01T12:22:31.625Z,3.10
2018-03-01T12:25:01.435Z,3.60
2018-03-01T12:27:31.240Z,3.80
2018-03-01T12:30:01.092Z,4.20
2018-03-01T12:32:31.669Z,5.30
2018-03-01T12:35:01.493Z,5.30
2018-03-01T12:37:31.261Z,5.50
2018-03-01T12:40:01.832Z,4.60
2018-03-01T12:42:31.640Z,4.60
2018-03-01T12:45:01.468Z,4.50
2018-03-01T12:47:31.261Z,5.00
2018-03-01T12:50:00.893Z,5.20
2018-03-01T12:52:30.522Z,5.50
2018-03-01T12:55:00.906Z,4.90
2018-03-01T12:57:30.542Z,4.90
2018-03-01T13:00:00.172Z,5.00
2018-03-01T13:02:29.779Z,5.30
2018-03-01T13:05:01.253Z,5.20
2018-03-01T13:07:31.679Z,5.60
2018-03-01T13:10:02.058Z,5.90
2018-03-01T13:12:31.657Z,5.90
2018-03-01T13:15:01.310Z,5.20
2018-03-01T13:17:31.907Z,4.60
2018-03-01T13:20:01.713Z,4.60
2018-03-01T13:22:31.331Z,5.00
2018-03-01T13:25:00.984Z,5.40
2018-03-01T13:27:30.333Z,6.30
2018-03-01T13:29:59.955Z,6.00
2018-03-01T13:32:31.273Z,6.30
2018-03-01T13:35:04.846Z,6.20
2018-03-01T13:37:34.659Z,6.30
2018-03-01T13:40:04.089Z,6.40
2018-03-01T13:42:38.706Z,5.20
2018-03-01T13:45:08.318Z,5.20
2018-03-01T13:47:38.567Z,5.60
2018-03-01T13:50:08.197Z,5.70
2018-03-01T13:52:37.796Z,5.50
2018-03-01T13:55:08.204Z,5.80
2018-03-01T13:57:38.058Z,5.80
2018-03-01T14:00:08.427Z,5.80
2018-03-01T14:02:38.052Z,5.80
2018-03-01T14:05:07.681Z,5.60
2018-03-01T14:07:47.999Z,5.60
2018-03-01T14:10:17.653Z,5.40
2018-03-01T14:12:49.331Z,4.80
2018-03-01T14:15:19.714Z,5.60
2018-03-01T14:21:04.158Z,5.20
2018-03-01T14:23:48.394Z,5.30
2018-03-01T14:26:23.374Z,4.00
2018-03-01T14:28:54.927Z,4.00
2018-03-01T14:31:24.557Z,4.00
2018-03-01T14:33:54.583Z,4.10
2018-03-01T14:36:24.366Z,4.20
2018-03-01T14:38:54.182Z,4.30
2018-03-01T14:41:23.961Z,4.10
2018-03-01T14:43:53.785Z,3.60
2018-03-01T14:46:23.595Z,3.30
2018-03-01T14:48:53.448Z,3.10
2018-03-01T14:51:23.413Z,3.60
2018-03-01T14:53:53.231Z,3.50
2018-03-01T14:56:22.997Z,3.60
2018-03-01T14:58:52.812Z,3.90
2018-03-01T15:01:22.623Z,3.40
2018-03-01T15:03:52.425Z,3.40
2018-03-01T15:06:22.189Z,2.90
2018-03-01T15:08:52.010Z,1.50
2018-03-01T15:11:21.793Z,1.80
2018-03-01T15:13:52.364Z,1.80
2018-03-01T15:16:22.198Z,1.80
2018-03-01T15:18:51.968Z,1.70
2018-03-01T15:21:21.887Z,1.50
2018-03-01T15:23:51.666Z,1.80
2018-03-01T15:26:22.271Z,1.40
2018-03-01T15:28:52.172Z,1.40
2018-03-01T15:31:22.088Z,1.10
2018-03-01T15:33:51.922Z,0.70
2018-03-01T15:36:21.698Z,0.90
2018-03-01T15:38:51.502Z,0.70
2018-03-01T15:41:21.278Z,0.30
2018-03-01T15:43:51.077Z,-0.10
2018-03-01T15:46:20.912Z,0.00
2018-03-01T15:48:51.046Z,-0.10
2018-03-01T15:51:20.850Z,-0.20
2018-03-01T15:53:51.445Z,-1.20
2018-03-01T15:56:21.245Z,-1.20
2018-03-01T15:58:50.866Z,-1.90
2018-03-01T16:01:20.875Z,-2.50
2018-03-01T16:03:50.664Z,-2.90
2018-03-01T16:06:20.521Z,-3.10
2018-03-01T16:08:51.093Z,-3.40
2018-03-01T16:11:20.958Z,-3.40
2018-03-01T16:13:50.769Z,-3.10
2018-03-01T16:16:20.577Z,-2.80
2018-03-01T16:18:50.389Z,-2.60
2018-03-01T16:21:20.188Z,-2.60
2018-03-01T16:23:50.031Z,-2.80
2018-03-01T16:26:21.371Z,-3.30
2018-03-01T16:28:51.378Z,-3.30
2018-03-01T16:31:20.832Z,-3.60
2018-03-01T16:33:51.440Z,-3.90
2018-03-01T16:36:24.397Z,-4.00
2018-03-01T16:38:55.017Z,-4.30
2018-03-01T16:41:24.796Z,-4.30
2018-03-01T16:43:54.602Z,-4.30
2018-03-01T16:46:25.182Z,-4.50
2018-03-01T16:48:54.985Z,-4.60
2018-03-01T16:51:24.796Z,-4.60
2018-03-01T16:53:54.627Z,-4.60
2018-03-01T16:56:24.453Z,-4.70
2018-03-01T16:58:54.234Z,-4.90
2018-03-01T17:01:24.073Z,-4.90
2018-03-01T17:03:53.866Z,-4.80
2018-03-01T17:06:23.965Z,-4.80
2018-03-01T17:08:53.744Z,-4.90
2018-03-01T17:11:24.333Z,-5.10
2018-03-01T17:13:54.107Z,-5.10
2018-03-01T17:16:24.029Z,-5.10
2018-03-01T17:18:53.844Z,-5.10
2018-03-01T17:21:23.657Z,-5.10
2018-03-01T17:23:53.469Z,-5.10
2018-03-01T17:26:23.311Z,-5.10
2018-03-01T17:28:53.380Z,-5.20
2018-03-01T17:31:23.932Z,-5.20
2018-03-01T17:33:53.397Z,-5.30
2018-03-01T17:36:23.182Z,-5.20
2018-03-01T17:38:53.021Z,-5.20
2018-03-01T17:41:22.798Z,-5.20
2018-03-01T17:43:52.637Z,-5.30
2018-03-01T17:46:22.227Z,-5.30
2018-03-01T17:48:52.063Z,-5.40
2018-03-01T17:51:21.866Z,-5.50
2018-03-01T17:53:51.711Z,-5.50
2018-03-01T17:56:22.279Z,-5.60
2018-03-01T17:58:51.893Z,-5.60
2018-03-01T18:01:21.705Z,-5.60
2018-03-01T18:03:51.655Z,-5.60
2018-03-01T18:06:21.477Z,-5.60
2018-03-01T18:08:52.030Z,-5.60
2018-03-01T18:11:21.895Z,-5.60
2018-03-01T18:13:52.174Z,-5.70
2018-03-01T18:16:22.034Z,-5.70
2018-03-01T18:18:52.094Z,-5.70
2018-03-01T18:21:21.926Z,-5.70
2018-03-01T18:23:51.749Z,-5.80
2018-03-01T18:26:21.661Z,-5.80
2018-03-01T18:28:51.564Z,-5.80
2018-03-01T18:31:21.353Z,-5.90
2018-03-01T18:33:51.165Z,-5.90
2018-03-01T18:36:21.772Z,-5.90
2018-03-01T18:38:51.567Z,-5.90
2018-03-01T18:41:21.397Z,-5.90
2018-03-01T18:43:51.268Z,-6.00
2018-03-01T18:46:21.932Z,-6.10
2018-03-01T18:48:51.722Z,-6.10
2018-03-01T18:51:21.551Z,-6.20
2018-03-01T18:53:51.379Z,-6.20
2018-03-01T18:56:21.182Z,-6.30
2018-03-01T18:58:51.079Z,-6.30
2018-03-01T19:01:20.883Z,-6.40
2018-03-01T19:03:50.727Z,-6.30
2018-03-01T19:06:20.294Z,-6.30
2018-03-01T19:08:50.103Z,-6.30
2018-03-01T19:11:19.922Z,-6.40
2018-03-01T19:13:49.714Z,-6.40
2018-03-01T19:16:20.417Z,-6.40
2018-03-01T19:18:50.193Z,-6.40
2018-03-01T19:21:20.013Z,-6.50
2018-03-01T19:23:49.822Z,-6.50
2018-03-01T19:26:19.859Z,-6.50
2018-03-01T19:28:49.355Z,-6.50
2018-03-01T19:31:19.161Z,-6.50
2018-03-01T19:33:48.954Z,-6.60
2018-03-01T19:36:18.794Z,-6.70
2018-03-01T19:38:48.569Z,-6.70
2018-03-01T19:41:18.389Z,-6.70
2018-03-01T19:43:48.206Z,-6.80
2018-03-01T19:46:18.118Z,-6.80
2018-03-01T19:48:47.887Z,-6.80
2018-03-01T19:51:17.370Z,-6.80
2018-03-01T19:53:47.157Z,-6.80
2018-03-01T19:56:17.371Z,-6.80
2018-03-01T19:58:47.162Z,-6.80
2018-03-01T20:01:17.003Z,-6.80
2018-03-01T20:03:46.789Z,-6.80
2018-03-01T20:06:16.665Z,-6.90
2018-03-01T20:08:46.962Z,-6.90
2018-03-01T20:11:16.978Z,-6.90
2018-03-01T20:13:46.745Z,-6.90
2018-03-01T20:16:17.342Z,-6.90
2018-03-01T20:18:47.153Z,-7.00
2018-03-01T20:21:16.956Z,-7.00
2018-03-01T20:23:46.757Z,-7.00
2018-03-01T20:26:16.570Z,-7.10
2018-03-01T20:28:46.364Z,-7.10
2018-03-01T20:31:16.173Z,-7.10
2018-03-01T20:33:46.028Z,-7.30
2018-03-01T20:36:15.924Z,-7.30
2018-03-01T20:38:45.716Z,-7.30
2018-03-01T20:41:16.328Z,-7.30
2018-03-01T20:43:45.920Z,-7.40
2018-03-01T20:46:15.742Z,-7.40
2018-03-01T20:48:45.600Z,-7.40
2018-03-01T20:51:15.457Z,-7.50
2018-03-01T20:53:45.235Z,-7.50
2018-03-01T20:56:15.809Z,-7.50
2018-03-01T20:58:45.630Z,-7.50
2018-03-01T21:01:15.410Z,-7.60
2018-03-01T21:03:45.231Z,-7.50
2018-03-01T21:06:15.070Z,-7.50
2018-03-01T21:08:44.729Z,-7.40
2018-03-01T21:11:15.316Z,-7.50
2018-03-01T21:13:45.091Z,-7.50
2018-03-01T21:16:14.905Z,-7.50
2018-03-01T21:18:44.722Z,-7.70
2018-03-01T21:21:14.582Z,-7.70
2018-03-01T21:23:44.373Z,-7.70
2018-03-01T21:26:14.578Z,-7.80
2018-03-01T21:28:44.108Z,-7.80
2018-03-01T21:31:13.937Z,-7.80
2018-03-01T21:33:44.279Z,-8.00
2018-03-01T21:36:14.093Z,-8.10
2018-03-01T21:38:43.731Z,-8.00
2018-03-01T21:41:13.527Z,-8.00
2018-03-01T21:43:44.146Z,-8.10
2018-03-01T21:46:15.565Z,-8.10
2018-03-01T21:48:45.368Z,-8.10
2018-03-01T21:51:15.941Z,-8.10
2018-03-01T21:53:46.374Z,-8.10
2018-03-01T21:56:16.338Z,-8.20
2018-03-01T21:58:46.272Z,-8.10
2018-03-01T22:01:16.157Z,-8.20
2018-03-01T22:03:45.972Z,-8.20
2018-03-01T22:06:16.761Z,-8.30
2018-03-01T22:08:46.404Z,-8.30
2018-03-01T22:11:16.256Z,-8.30
2018-03-01T22:13:46.067Z,-8.30
2018-03-01T22:16:16.462Z,-8.40
2018-03-01T22:18:46.091Z,-8.40
2018-03-01T22:21:15.949Z,-8.40
2018-03-01T22:23:45.797Z,-8.40
2018-03-01T22:26:15.623Z,-8.40
2018-03-01T22:28:45.952Z,-8.40
2018-03-01T22:31:15.752Z,-8.50
2018-03-01T22:33:45.402Z,-8.50
2018-03-01T22:36:15.441Z,-8.50
2018-03-01T22:38:45.293Z,-8.50
2018-03-01T22:41:15.131Z,-8.50
2018-03-01T22:43:45.693Z,-8.50
2018-03-01T22:46:16.077Z,-8.50
2018-03-01T22:48:46.643Z,-8.50
2018-03-01T22:51:16.146Z,-8.50
2018-03-01T22:53:46.233Z,-8.50
2018-03-01T22:56:16.820Z,-8.50
2018-03-01T22:58:46.381Z,-8.60
2018-03-01T23:01:16.626Z,-8.60
2018-03-01T23:03:46.207Z,-8.60
2018-03-01T23:06:16.451Z,-8.60
2018-03-01T23:08:46.034Z,-8.60
2018-03-01T23:11:15.989Z,-8.60
2018-03-01T23:13:45.834Z,-8.60
2018-03-01T23:16:15.649Z,-8.70
2018-03-01T23:18:45.482Z,-8.70
2018-03-01T23:21:15.333Z,-8.80
2018-03-01T23:23:45.121Z,-8.80
2018-03-01T23:26:14.934Z,-8.80
2018-03-01T23:28:45.538Z,-8.80
2018-03-01T23:31:15.346Z,-8.80
2018-03-01T23:33:44.838Z,-8.80
2018-03-01T23:36:15.120Z,-8.90
2018-03-01T23:38:45.060Z,-8.90
2018-03-01T23:41:14.568Z,-8.90
2018-03-01T23:43:44.401Z,-8.90
2018-03-01T23:46:13.295Z,-9.00
2018-03-01T23:48:43.186Z,-9.00
2018-03-01T23:51:12.717Z,-9.00
2018-03-01T23:53:43.230Z,-9.00
2018-03-01T23:56:13.092Z,-9.00
2018-03-01T23:58:42.918Z,-9.00
